createdAt,value
2017-10-17T00:00:16.936Z,19.48
2017-10-17T00:02:47.667Z,19.35
2017-10-17T00:05:19.231Z,19.55
2017-10-17T00:07:50.694Z,19.17
2017-10-17T00:10:21.992Z,19.17
2017-10-17T00:12:52.788Z,20.55
2017-10-17T00:15:23.783Z,20.00
2017-10-17T00:17:54.460Z,18.30
2017-10-17T00:20:26.403Z,19.45
2017-10-17T00:22:58.457Z,19.30
2017-10-17T00:25:29.932Z,19.10
2017-10-17T00:28:00.947Z,19.77
2017-10-17T00:30:33.552Z,18.52
2017-10-17T00:33:06.050Z,20.15
2017-10-17T00:35:38.880Z,20.25
2017-10-17T00:38:12.006Z,18.48
2017-10-17T00:40:43.286Z,17.80
2017-10-17T00:43:15.915Z,18.25
2017-10-17T00:45:46.863Z,17.70
2017-10-17T00:48:19.439Z,18.37
2017-10-17T00:50:51.219Z,19.27
2017-10-17T00:53:22.529Z,17.20
2017-10-17T00:55:53.892Z,17.52
2017-10-17T00:58:26.190Z,17.65
2017-10-17T01:00:57.846Z,17.40
2017-10-17T01:03:28.884Z,18.00
2017-10-17T01:06:00.266Z,18.58
2017-10-17T01:08:32.125Z,18.40
2017-10-17T01:11:03.179Z,18.02
2017-10-17T01:13:34.464Z,18.15
2017-10-17T01:16:05.478Z,18.35
2017-10-17T01:18:36.140Z,17.00
2017-10-17T01:21:13.948Z,18.30
2017-10-17T01:23:58.789Z,18.33
2017-10-17T01:26:29.987Z,18.15
2017-10-17T01:29:19.320Z,15.77
2017-10-17T01:31:50.357Z,18.17
2017-10-17T01:34:26.014Z,16.85
2017-10-17T01:36:56.949Z,17.05
2017-10-17T01:39:27.725Z,17.75
2017-10-17T01:41:59.771Z,17.30
2017-10-17T01:44:46.287Z,19.20
2017-10-17T01:47:21.621Z,19.60
2017-10-17T01:49:53.023Z,19.10
2017-10-17T01:52:24.194Z,17.85
2017-10-17T01:54:58.823Z,19.05
2017-10-17T02:00:32.970Z,18.05
2017-10-17T02:03:04.520Z,18.65
2017-10-17T02:05:35.573Z,17.90
2017-10-17T02:08:19.969Z,17.87
2017-10-17T02:11:23.897Z,18.10
2017-10-17T02:13:55.465Z,17.45
2017-10-17T02:16:27.057Z,17.95
2017-10-17T02:18:59.120Z,18.80
2017-10-17T02:21:50.758Z,17.85
2017-10-17T02:24:21.887Z,15.88
2017-10-17T02:26:53.439Z,17.33
2017-10-17T02:29:45.909Z,18.65
2017-10-17T02:32:17.622Z,16.77
2017-10-17T02:35:00.766Z,17.98
2017-10-17T02:37:33.131Z,17.92
2017-10-17T02:40:05.112Z,16.95
2017-10-17T02:42:36.305Z,18.35
2017-10-17T02:45:07.003Z,17.27
2017-10-17T02:47:38.662Z,16.98
2017-10-17T02:50:13.942Z,17.35
2017-10-17T02:52:45.170Z,15.93
2017-10-17T02:55:17.412Z,16.85
2017-10-17T02:57:48.737Z,17.50
2017-10-17T03:00:19.795Z,15.95
2017-10-17T03:02:50.762Z,17.67
2017-10-17T03:05:22.674Z,15.30
2017-10-17T03:07:53.796Z,17.23
2017-10-17T03:10:26.576Z,15.55
2017-10-17T03:12:58.121Z,15.75
2017-10-17T03:15:30.335Z,15.30
2017-10-17T03:18:02.362Z,16.30
2017-10-17T03:20:33.786Z,15.93
2017-10-17T03:23:10.859Z,17.95
2017-10-17T03:25:42.037Z,17.55
2017-10-17T03:28:20.101Z,17.12
2017-10-17T03:30:51.642Z,15.85
2017-10-17T03:33:23.066Z,16.85
2017-10-17T03:35:54.649Z,18.77
2017-10-17T03:38:27.137Z,17.80
2017-10-17T03:41:02.691Z,17.95
2017-10-17T03:43:53.530Z,17.48
2017-10-17T03:46:29.266Z,17.50
2017-10-17T03:49:01.561Z,18.75
2017-10-17T03:51:33.548Z,16.98
2017-10-17T03:54:09.365Z,18.45
2017-10-17T03:56:41.966Z,18.62
2017-10-17T03:59:24.340Z,19.62
2017-10-17T04:01:56.418Z,19.62
2017-10-17T04:04:42.528Z,20.12
2017-10-17T04:10:44.244Z,20.02
2017-10-17T04:13:25.206Z,20.92
2017-10-17T04:15:57.540Z,19.30
2017-10-17T04:18:43.556Z,19.87
2017-10-17T04:21:17.972Z,18.67
2017-10-17T04:23:50.603Z,21.05
2017-10-17T04:26:41.944Z,20.20
2017-10-17T04:29:33.177Z,20.50
2017-10-17T04:32:05.215Z,21.17
2017-10-17T04:34:41.720Z,21.25
2017-10-17T04:37:16.461Z,22.02
2017-10-17T04:39:47.714Z,20.90
2017-10-17T04:42:19.723Z,21.48
2017-10-17T04:45:12.171Z,21.10
2017-10-17T04:48:04.510Z,21.75
2017-10-17T04:50:55.208Z,24.42
2017-10-17T04:53:41.370Z,22.15
2017-10-17T04:56:29.610Z,21.62
2017-10-17T04:59:23.056Z,22.27
2017-10-17T05:01:59.779Z,24.27
2017-10-17T05:04:43.409Z,23.35
2017-10-17T05:07:24.666Z,22.45
2017-10-17T05:09:59.856Z,23.17
2017-10-17T05:12:33.170Z,22.55
2017-10-17T05:15:05.389Z,22.75
2017-10-17T05:17:43.125Z,23.70
2017-10-17T05:20:34.251Z,23.23
2017-10-17T05:23:09.406Z,23.40
2017-10-17T05:25:41.282Z,24.08
2017-10-17T05:28:20.017Z,25.55
2017-10-17T05:30:52.372Z,23.17
2017-10-17T05:33:44.607Z,23.70
2017-10-17T05:39:16.705Z,22.62
2017-10-17T05:41:49.195Z,21.98
2017-10-17T05:44:39.171Z,23.50
2017-10-17T05:47:30.824Z,22.90
2017-10-17T05:53:04.633Z,24.70
2017-10-17T05:55:36.829Z,25.58
2017-10-17T05:58:08.002Z,24.30
2017-10-17T06:00:39.213Z,23.42
2017-10-17T06:03:10.278Z,22.10
2017-10-17T06:05:41.838Z,23.45
2017-10-17T06:08:13.667Z,23.70
2017-10-17T06:10:44.875Z,22.50
2017-10-17T06:13:16.158Z,21.27
2017-10-17T06:15:47.774Z,21.83
2017-10-17T06:18:19.066Z,23.65
2017-10-17T06:20:50.047Z,21.58
2017-10-17T06:23:22.069Z,21.30
2017-10-17T06:25:53.674Z,22.83
2017-10-17T06:28:24.953Z,22.35
2017-10-17T06:30:56.551Z,23.12
2017-10-17T06:33:27.784Z,23.35
2017-10-17T06:35:59.008Z,20.35
2017-10-17T06:38:30.314Z,22.08
2017-10-17T06:41:01.468Z,24.35
2017-10-17T06:43:33.003Z,20.53
2017-10-17T06:46:04.568Z,22.52
2017-10-17T06:48:35.599Z,21.35
2017-10-17T06:51:06.712Z,20.70
2017-10-17T06:53:37.500Z,20.27
2017-10-17T06:56:09.011Z,21.05
2017-10-17T06:58:40.507Z,19.90
2017-10-17T07:01:12.376Z,21.10
2017-10-17T07:03:44.039Z,22.05
2017-10-17T07:06:15.645Z,22.13
2017-10-17T07:08:46.790Z,22.23
2017-10-17T07:11:18.546Z,20.10
2017-10-17T07:13:49.626Z,21.07
2017-10-17T07:16:21.005Z,20.50
2017-10-17T07:18:52.625Z,21.00
2017-10-17T07:21:24.524Z,19.77
2017-10-17T07:23:58.078Z,21.40
2017-10-17T07:26:30.466Z,20.92
2017-10-17T07:29:01.678Z,20.00
2017-10-17T07:31:32.472Z,20.67
2017-10-17T07:34:03.254Z,21.10
2017-10-17T07:36:34.552Z,21.60
2017-10-17T07:39:05.769Z,20.93
2017-10-17T07:41:37.398Z,21.03
2017-10-17T07:44:09.927Z,20.70
2017-10-17T07:46:42.625Z,21.87
2017-10-17T07:49:14.108Z,21.67
2017-10-17T07:51:45.146Z,19.67
2017-10-17T07:54:18.293Z,21.30
2017-10-17T07:56:49.516Z,22.20
2017-10-17T07:59:20.897Z,22.27
2017-10-17T08:01:52.038Z,21.33
2017-10-17T08:04:23.560Z,22.10
2017-10-17T08:06:56.135Z,20.13
2017-10-17T08:09:27.313Z,19.00
2017-10-17T08:11:58.428Z,20.90
2017-10-17T08:14:30.001Z,19.53
2017-10-17T08:17:01.349Z,18.97
2017-10-17T08:19:32.807Z,20.50
2017-10-17T08:22:04.888Z,19.50
2017-10-17T08:24:35.893Z,19.60
2017-10-17T08:27:07.553Z,18.40
2017-10-17T08:29:40.376Z,20.03
2017-10-17T08:32:11.886Z,19.13
2017-10-17T08:34:43.456Z,19.73
2017-10-17T08:37:15.125Z,19.43
2017-10-17T08:39:46.289Z,18.97
2017-10-17T08:42:18.031Z,19.80
2017-10-17T08:44:50.598Z,20.20
2017-10-17T08:47:21.983Z,19.23
2017-10-17T08:49:53.514Z,18.70
2017-10-17T08:52:25.104Z,18.40
2017-10-17T08:54:56.611Z,18.57
2017-10-17T08:57:27.831Z,19.17
2017-10-17T08:59:59.528Z,23.13
2017-10-17T09:02:31.092Z,19.83
2017-10-17T09:05:01.679Z,20.20
2017-10-17T09:07:33.343Z,18.90
2017-10-17T09:10:05.085Z,19.40
2017-10-17T09:12:36.691Z,20.37
2017-10-17T09:15:07.695Z,19.90
2017-10-17T09:17:39.194Z,20.30
2017-10-17T09:20:10.974Z,17.37
2017-10-17T09:22:42.058Z,17.93
2017-10-17T09:25:14.333Z,22.00
2017-10-17T09:27:45.714Z,18.87
2017-10-17T09:30:16.844Z,18.97
2017-10-17T09:32:48.447Z,20.47
2017-10-17T09:35:19.564Z,20.17
2017-10-17T09:37:50.877Z,21.07
2017-10-17T09:40:22.014Z,22.10
2017-10-17T09:42:53.798Z,20.47
2017-10-17T09:45:25.492Z,21.10
2017-10-17T09:47:56.615Z,19.33
2017-10-17T09:50:27.802Z,21.00
2017-10-17T09:52:59.035Z,19.13
2017-10-17T09:55:30.498Z,20.80
2017-10-17T09:58:02.390Z,21.77
2017-10-17T10:00:33.663Z,21.93
2017-10-17T10:03:05.104Z,20.20
2017-10-17T10:05:36.640Z,19.73
2017-10-17T10:08:07.662Z,20.37
2017-10-17T10:10:39.080Z,20.57
2017-10-17T10:13:10.591Z,21.23
2017-10-17T10:15:41.678Z,20.70
2017-10-17T10:18:13.555Z,22.30
2017-10-17T10:20:45.939Z,21.27
2017-10-17T10:23:18.247Z,22.57
2017-10-17T10:25:48.851Z,21.57
2017-10-17T10:28:20.779Z,22.50
2017-10-17T10:30:51.902Z,22.37
2017-10-17T10:33:22.468Z,19.67
2017-10-17T10:35:53.488Z,20.00
2017-10-17T10:38:24.828Z,20.90
2017-10-17T10:40:56.034Z,19.67
2017-10-17T10:43:27.496Z,19.60
2017-10-17T10:45:59.591Z,19.70
2017-10-17T10:48:30.982Z,18.40
2017-10-17T10:51:02.922Z,19.70
2017-10-17T10:53:34.470Z,17.37
2017-10-17T10:56:05.981Z,20.47
2017-10-17T10:58:37.992Z,19.33
2017-10-17T11:01:09.895Z,20.73
2017-10-17T11:03:40.733Z,19.63
2017-10-17T11:06:12.189Z,19.80
2017-10-17T11:08:43.189Z,21.37
2017-10-17T11:11:14.547Z,20.63
2017-10-17T11:13:45.494Z,21.47
2017-10-17T11:16:16.678Z,20.20
2017-10-17T11:18:48.738Z,18.93
2017-10-17T11:21:20.040Z,20.03
2017-10-17T11:23:51.306Z,18.10
2017-10-17T11:26:22.633Z,19.13
2017-10-17T11:28:54.162Z,20.07
2017-10-17T11:31:26.031Z,16.97
2017-10-17T11:33:57.539Z,16.90
2017-10-17T11:36:29.712Z,16.87
2017-10-17T11:39:01.158Z,22.10
2017-10-17T11:41:42.128Z,19.20
2017-10-17T11:44:14.151Z,18.97
2017-10-17T11:46:46.296Z,17.63
2017-10-17T11:49:17.638Z,17.63
2017-10-17T11:51:48.735Z,17.80
2017-10-17T11:54:19.949Z,17.00
2017-10-17T11:56:51.765Z,20.33
2017-10-17T11:59:22.874Z,20.23
2017-10-17T12:01:54.531Z,20.17
2017-10-17T12:04:25.832Z,21.03
2017-10-17T12:06:57.387Z,18.43
2017-10-17T12:09:29.461Z,20.97
2017-10-17T12:12:00.921Z,19.07
2017-10-17T12:14:33.498Z,20.30
2017-10-17T12:17:11.116Z,20.80
2017-10-17T12:19:43.931Z,20.00
2017-10-17T12:22:15.212Z,20.57
2017-10-17T12:24:46.596Z,17.77
2017-10-17T12:27:17.950Z,18.27
2017-10-17T12:29:49.659Z,17.03
2017-10-17T12:32:21.534Z,17.20
2017-10-17T12:34:53.878Z,17.93
2017-10-17T12:37:26.417Z,17.83
2017-10-17T12:39:57.693Z,17.30
2017-10-17T12:42:29.233Z,15.80
2017-10-17T12:45:00.607Z,16.80
2017-10-17T12:47:33.120Z,15.90
2017-10-17T12:50:05.083Z,16.57
2017-10-17T12:52:35.981Z,15.03
2017-10-17T12:55:07.861Z,16.03
2017-10-17T12:57:39.890Z,16.30
2017-10-17T13:00:11.126Z,16.23
2017-10-17T13:02:41.975Z,18.67
2017-10-17T13:05:13.625Z,17.00
2017-10-17T13:07:45.815Z,16.77
2017-10-17T13:10:18.168Z,17.80
2017-10-17T13:12:49.177Z,18.37
2017-10-17T13:15:20.423Z,18.60
2017-10-17T13:17:51.537Z,18.87
2017-10-17T13:20:22.705Z,20.90
2017-10-17T13:22:54.002Z,21.23
2017-10-17T13:25:25.001Z,19.00
2017-10-17T13:27:57.627Z,19.10
2017-10-17T13:30:29.644Z,19.20
2017-10-17T13:33:00.190Z,19.40
2017-10-17T13:35:32.409Z,19.60
2017-10-17T13:38:05.117Z,20.70
2017-10-17T13:40:36.366Z,19.87
2017-10-17T13:43:08.245Z,20.27
2017-10-17T13:45:39.253Z,22.10
2017-10-17T13:48:09.882Z,21.40
2017-10-17T13:50:41.130Z,21.73
2017-10-17T13:53:12.161Z,20.60
2017-10-17T13:55:43.275Z,18.67
2017-10-17T13:58:14.696Z,18.57
2017-10-17T14:00:45.547Z,19.73
2017-10-17T14:03:16.205Z,20.90
2017-10-17T14:05:48.354Z,20.67
2017-10-17T14:08:19.905Z,19.63
2017-10-17T14:10:51.474Z,18.67
2017-10-17T14:13:23.332Z,20.00
2017-10-17T14:15:55.364Z,18.17
2017-10-17T14:18:26.352Z,19.30
2017-10-17T14:20:57.794Z,19.33
2017-10-17T14:23:29.964Z,18.63
2017-10-17T14:26:01.484Z,20.13
2017-10-17T14:28:33.446Z,18.10
2017-10-17T14:31:06.053Z,19.03
2017-10-17T14:33:38.006Z,17.80
2017-10-17T14:36:10.109Z,18.47
2017-10-17T14:38:41.683Z,18.50
2017-10-17T14:41:12.885Z,18.13
2017-10-17T14:43:43.667Z,19.27
2017-10-17T14:46:14.506Z,19.50
2017-10-17T14:48:46.495Z,19.73
2017-10-17T14:51:18.214Z,19.57
2017-10-17T14:53:48.833Z,18.70
2017-10-17T14:56:19.886Z,17.50
2017-10-17T14:58:51.494Z,18.60
2017-10-17T15:01:22.533Z,20.87
2017-10-17T15:03:54.565Z,20.63
2017-10-17T15:06:26.347Z,20.47
2017-10-17T15:08:57.545Z,22.57
2017-10-17T15:11:28.075Z,22.80
2017-10-17T15:13:59.211Z,22.57
2017-10-17T15:16:30.408Z,22.97
2017-10-17T15:19:01.751Z,21.40
2017-10-17T15:21:34.316Z,21.33
2017-10-17T15:24:06.222Z,20.20
2017-10-17T15:26:37.258Z,20.03
2017-10-17T15:29:08.256Z,21.60
2017-10-17T15:31:39.683Z,21.07
2017-10-17T15:34:10.822Z,23.07
2017-10-17T15:36:41.715Z,23.57
2017-10-17T15:39:12.674Z,21.53
2017-10-17T15:41:44.138Z,21.90
2017-10-17T15:44:15.480Z,23.83
2017-10-17T15:46:46.590Z,24.20
2017-10-17T15:49:17.746Z,23.57
2017-10-17T15:51:48.330Z,23.70
2017-10-17T15:54:20.165Z,23.33
2017-10-17T15:56:51.024Z,24.60
2017-10-17T15:59:22.084Z,25.20
2017-10-17T16:01:53.695Z,24.07
2017-10-17T16:04:25.237Z,24.97
2017-10-17T16:06:55.969Z,22.90
2017-10-17T16:09:26.941Z,22.97
2017-10-17T16:11:58.550Z,22.70
2017-10-17T16:14:29.692Z,24.07
2017-10-17T16:17:01.514Z,24.20
2017-10-17T16:19:33.109Z,25.50
2017-10-17T16:22:04.402Z,24.10
2017-10-17T16:24:35.429Z,23.17
2017-10-17T16:27:06.711Z,26.30
2017-10-17T16:29:38.111Z,23.93
2017-10-17T16:32:08.825Z,24.83
2017-10-17T16:34:39.958Z,25.07
2017-10-17T16:37:10.919Z,24.80
2017-10-17T16:39:42.408Z,25.60
2017-10-17T16:42:13.096Z,26.07
2017-10-17T16:44:45.335Z,27.00
2017-10-17T16:47:17.601Z,26.00
2017-10-17T16:49:48.743Z,24.67
2017-10-17T16:52:19.712Z,24.80
2017-10-17T16:54:50.548Z,23.97
2017-10-17T16:57:21.620Z,25.50
2017-10-17T16:59:52.561Z,24.30
2017-10-17T17:02:23.411Z,27.43
2017-10-17T17:04:55.632Z,24.10
2017-10-17T17:07:26.813Z,24.30
2017-10-17T17:09:57.796Z,24.70
2017-10-17T17:12:29.461Z,25.20
2017-10-17T17:15:00.591Z,24.50
2017-10-17T17:17:32.571Z,26.00
2017-10-17T17:20:04.929Z,26.10
2017-10-17T17:22:36.511Z,26.30
2017-10-17T17:25:07.522Z,27.30
2017-10-17T17:27:38.729Z,26.20
2017-10-17T17:30:10.002Z,25.25
2017-10-17T17:32:41.722Z,25.90
2017-10-17T17:35:13.228Z,26.33
2017-10-17T17:37:44.025Z,27.62
2017-10-17T17:40:14.741Z,26.60
2017-10-17T17:42:45.898Z,26.27
2017-10-17T17:45:16.901Z,26.02
2017-10-17T17:47:48.060Z,26.05
2017-10-17T17:50:18.914Z,27.42
2017-10-17T17:52:50.518Z,26.70
2017-10-17T17:55:22.274Z,26.05
2017-10-17T17:57:54.661Z,28.08
2017-10-17T18:00:26.110Z,28.35
2017-10-17T18:02:57.959Z,30.08
2017-10-17T18:05:29.011Z,30.62
2017-10-17T18:07:59.970Z,29.63
2017-10-17T18:10:31.015Z,31.30
2017-10-17T18:13:01.924Z,30.65
2017-10-17T18:15:32.715Z,29.08
2017-10-17T18:18:04.335Z,30.83
2017-10-17T18:20:35.165Z,30.52
2017-10-17T18:23:06.061Z,34.88
2017-10-17T18:25:36.671Z,35.63
2017-10-17T18:28:07.484Z,38.72
2017-10-17T18:30:38.273Z,41.13
2017-10-17T18:33:09.759Z,44.15
2017-10-17T18:35:41.177Z,44.40
2017-10-17T18:38:12.452Z,44.03
2017-10-17T18:40:43.414Z,45.40
2017-10-17T18:43:15.862Z,42.78
2017-10-17T18:45:47.628Z,42.50
2017-10-17T18:48:19.027Z,37.53
2017-10-17T18:50:50.394Z,37.80
2017-10-17T18:53:23.249Z,35.45
2017-10-17T18:55:55.476Z,36.47
2017-10-17T18:58:26.174Z,33.35
2017-10-17T19:00:57.309Z,31.90
2017-10-17T19:03:28.532Z,35.72
2017-10-17T19:05:59.478Z,34.05
2017-10-17T19:08:30.420Z,32.65
2017-10-17T19:11:02.366Z,30.33
2017-10-17T19:13:33.394Z,30.50
2017-10-17T19:16:04.478Z,29.65
2017-10-17T19:18:36.172Z,28.17
2017-10-17T19:21:07.485Z,28.80
2017-10-17T19:23:37.958Z,29.52
2017-10-17T19:26:09.321Z,27.35
2017-10-17T19:28:40.587Z,26.35
2017-10-17T19:31:12.045Z,30.17
2017-10-17T19:33:44.207Z,28.33
2017-10-17T19:36:15.903Z,28.62
2017-10-17T19:38:47.042Z,25.67
2017-10-17T19:41:17.986Z,29.20
2017-10-17T19:43:49.935Z,26.50
2017-10-17T19:46:21.154Z,28.52
2017-10-17T19:48:52.457Z,26.05
2017-10-17T19:51:24.282Z,25.73
2017-10-17T19:53:56.260Z,26.17
2017-10-17T19:56:27.575Z,25.12
2017-10-17T19:58:58.343Z,24.87
2017-10-17T20:01:29.324Z,26.73
2017-10-17T20:03:59.866Z,25.37
2017-10-17T20:06:30.927Z,26.33
2017-10-17T20:09:01.899Z,28.85
2017-10-17T20:11:33.088Z,28.40
2017-10-17T20:14:04.113Z,28.10
2017-10-17T20:16:35.643Z,26.37
2017-10-17T20:19:06.588Z,28.40
2017-10-17T20:21:37.537Z,26.50
2017-10-17T20:24:08.261Z,28.02
2017-10-17T20:26:38.970Z,29.42
2017-10-17T20:29:10.101Z,28.92
2017-10-17T20:31:41.075Z,28.48
2017-10-17T20:34:11.912Z,30.58
2017-10-17T20:36:42.831Z,31.15
2017-10-17T20:39:13.895Z,29.37
2017-10-17T20:41:44.718Z,30.92
2017-10-17T20:44:16.048Z,28.30
2017-10-17T20:46:47.231Z,31.65
2017-10-17T20:49:18.199Z,29.40
2017-10-17T20:51:49.235Z,29.58
2017-10-17T20:54:20.752Z,30.90
2017-10-17T20:56:51.569Z,32.35
2017-10-17T20:59:23.600Z,30.08
2017-10-17T21:01:54.818Z,32.40
2017-10-17T21:04:25.593Z,33.50
2017-10-17T21:06:56.581Z,31.95
2017-10-17T21:09:27.137Z,33.35
2017-10-17T21:11:59.571Z,33.47
2017-10-17T21:14:31.062Z,33.45
2017-10-17T21:17:02.103Z,33.17
2017-10-17T21:19:32.725Z,34.22
2017-10-17T21:22:04.451Z,33.90
2017-10-17T21:24:35.476Z,35.50
2017-10-17T21:27:06.140Z,34.75
2017-10-17T21:29:37.343Z,33.70
2017-10-17T21:32:09.162Z,32.78
2017-10-17T21:34:40.394Z,33.85
2017-10-17T21:37:11.898Z,33.85
2017-10-17T21:39:42.689Z,32.25
2017-10-17T21:42:14.609Z,33.05
2017-10-17T21:44:45.539Z,31.65
2017-10-17T21:47:16.709Z,32.33
2017-10-17T21:49:47.455Z,34.67
2017-10-17T21:52:18.485Z,34.65
2017-10-17T21:54:49.855Z,33.55
2017-10-17T21:57:20.652Z,35.55
2017-10-17T21:59:51.530Z,33.55
2017-10-17T22:02:22.186Z,34.95
2017-10-17T22:04:52.930Z,35.17
2017-10-17T22:07:23.867Z,32.83
2017-10-17T22:09:55.025Z,34.38
2017-10-17T22:12:25.936Z,36.85
2017-10-17T22:14:56.335Z,38.28
2017-10-17T22:17:27.933Z,39.25
2017-10-17T22:19:58.773Z,39.42
2017-10-17T22:22:29.578Z,42.80
2017-10-17T22:25:00.968Z,37.38
2017-10-17T22:27:31.859Z,40.10
2017-10-17T22:30:02.739Z,39.13
2017-10-17T22:32:33.741Z,37.08
2017-10-17T22:35:05.792Z,37.25
2017-10-17T22:37:37.510Z,36.75
2017-10-17T22:40:08.582Z,38.20
2017-10-17T22:42:40.348Z,38.15
2017-10-17T22:45:11.995Z,37.88
2017-10-17T22:47:42.597Z,41.60
2017-10-17T22:50:13.189Z,39.95
2017-10-17T22:52:44.174Z,40.90
2017-10-17T22:55:14.885Z,40.40
2017-10-17T22:57:46.359Z,39.20
2017-10-17T23:00:17.374Z,40.22
2017-10-17T23:02:48.135Z,39.50
2017-10-17T23:05:19.671Z,40.70
2017-10-17T23:07:50.535Z,39.15
2017-10-17T23:10:21.735Z,38.55
2017-10-17T23:12:53.105Z,37.55
2017-10-17T23:15:24.186Z,37.83
2017-10-17T23:18:04.986Z,38.85
2017-10-17T23:20:38.623Z,40.25
2017-10-17T23:23:08.912Z,38.08
2017-10-17T23:25:39.691Z,40.17
2017-10-17T23:28:10.334Z,38.35
2017-10-17T23:30:40.877Z,38.42
2017-10-17T23:33:12.826Z,38.30
2017-10-17T23:35:43.571Z,40.12
2017-10-17T23:38:15.231Z,38.42
2017-10-17T23:40:46.437Z,41.15
2017-10-17T23:43:16.988Z,39.55
2017-10-17T23:45:47.817Z,41.85
2017-10-17T23:48:18.447Z,37.92
2017-10-17T23:50:49.746Z,39.22
2017-10-17T23:53:20.313Z,41.50
2017-10-17T23:55:51.017Z,39.28
2017-10-17T23:58:22.293Z,39.30
